sensor_id;sensor_type;location;lat;lon;timestamp;P1;durP1;ratioP1;P2;durP2;ratioP2
77379;SDS011;66439;50.106;10.996;2023-05-07T00:01:02;18.40;;;13.10;;
77379;SDS011;66439;50.106;10.996;2023-05-07T00:03:05;19.80;;;13.70;;
77379;SDS011;66439;50.106;10.996;2023-05-07T00:05:16;24.00;;;14.30;;
77379;SDS011;66439;50.106;10.996;2023-05-07T00:07:24;18.00;;;12.30;;
77379;SDS011;66439;50.106;10.996;2023-05-07T00:09:28;19.00;;;13.20;;
77379;SDS011;66439;50.106;10.996;2023-05-07T00:11:34;21.60;;;13.60;;
77379;SDS011;66439;50.106;10.996;2023-05-07T00:13:39;21.70;;;13.80;;
77379;SDS011;66439;50.106;10.996;2023-05-07T00:15:52;21.10;;;12.90;;
77379;SDS011;66439;50.106;10.996;2023-05-07T00:17:55;21.80;;;13.00;;
77379;SDS011;66439;50.106;10.996;2023-05-07T00:20:07;22.60;;;14.30;;
77379;SDS011;66439;50.106;10.996;2023-05-07T00:22:30;27.10;;;17.40;;
77379;SDS011;66439;50.106;10.996;2023-05-07T00:24:34;33.20;;;19.40;;
77379;SDS011;66439;50.106;10.996;2023-05-07T00:26:55;28.10;;;16.10;;
77379;SDS011;66439;50.106;10.996;2023-05-07T00:29:01;25.90;;;15.30;;
77379;SDS011;66439;50.106;10.996;2023-05-07T00:31:05;24.80;;;16.10;;
77379;SDS011;66439;50.106;10.996;2023-05-07T00:33:09;27.90;;;17.50;;
77379;SDS011;66439;50.106;10.996;2023-05-07T00:35:13;25.50;;;15.10;;
77379;SDS011;66439;50.106;10.996;2023-05-07T00:37:20;39.90;;;18.60;;
77379;SDS011;66439;50.106;10.996;2023-05-07T00:39:23;49.60;;;23.70;;
77379;SDS011;66439;50.106;10.996;2023-05-07T00:41:31;45.40;;;23.40;;
77379;SDS011;66439;50.106;10.996;2023-05-07T00:43:34;33.70;;;18.20;;
77379;SDS011;66439;50.106;10.996;2023-05-07T00:45:41;33.10;;;18.80;;
77379;SDS011;66439;50.106;10.996;2023-05-07T00:48:07;28.60;;;17.30;;
77379;SDS011;66439;50.106;10.996;2023-05-07T00:50:10;27.40;;;16.20;;
77379;SDS011;66439;50.106;10.996;2023-05-07T00:52:17;28.20;;;17.00;;
77379;SDS011;66439;50.106;10.996;2023-05-07T00:54:22;24.60;;;15.30;;
77379;SDS011;66439;50.106;10.996;2023-05-07T00:56:27;27.80;;;18.00;;
77379;SDS011;66439;50.106;10.996;2023-05-07T00:58:32;29.50;;;17.40;;
77379;SDS011;66439;50.106;10.996;2023-05-07T01:00:40;32.10;;;17.40;;
77379;SDS011;66439;50.106;10.996;2023-05-07T01:02:46;28.00;;;16.50;;
77379;SDS011;66439;50.106;10.996;2023-05-07T01:04:51;27.50;;;15.40;;
77379;SDS011;66439;50.106;10.996;2023-05-07T01:06:56;28.20;;;17.50;;
77379;SDS011;66439;50.106;10.996;2023-05-07T01:11:44;28.00;;;17.00;;
77379;SDS011;66439;50.106;10.996;2023-05-07T01:13:50;29.70;;;16.40;;
77379;SDS011;66439;50.106;10.996;2023-05-07T01:15:55;29.00;;;17.50;;
77379;SDS011;66439;50.106;10.996;2023-05-07T01:17:59;25.30;;;15.40;;
77379;SDS011;66439;50.106;10.996;2023-05-07T01:20:08;28.70;;;16.60;;
77379;SDS011;66439;50.106;10.996;2023-05-07T01:22:16;31.60;;;18.40;;
77379;SDS011;66439;50.106;10.996;2023-05-07T01:24:33;27.90;;;16.90;;
77379;SDS011;66439;50.106;10.996;2023-05-07T01:26:41;30.20;;;18.40;;
77379;SDS011;66439;50.106;10.996;2023-05-07T01:28:46;35.40;;;18.00;;
77379;SDS011;66439;50.106;10.996;2023-05-07T01:30:52;29.00;;;16.10;;
77379;SDS011;66439;50.106;10.996;2023-05-07T01:33:10;28.80;;;16.50;;
77379;SDS011;66439;50.106;10.996;2023-05-07T01:35:19;33.50;;;18.70;;
77379;SDS011;66439;50.106;10.996;2023-05-07T01:37:30;34.10;;;17.90;;
77379;SDS011;66439;50.106;10.996;2023-05-07T01:39:37;31.50;;;19.60;;
77379;SDS011;66439;50.106;10.996;2023-05-07T01:41:46;31.10;;;19.80;;
77379;SDS011;66439;50.106;10.996;2023-05-07T01:43:51;35.80;;;19.90;;
77379;SDS011;66439;50.106;10.996;2023-05-07T01:46:01;30.70;;;17.50;;
77379;SDS011;66439;50.106;10.996;2023-05-07T01:48:07;32.90;;;17.70;;
77379;SDS011;66439;50.106;10.996;2023-05-07T01:50:13;31.10;;;18.90;;
77379;SDS011;66439;50.106;10.996;2023-05-07T01:52:22;36.70;;;19.20;;
77379;SDS011;66439;50.106;10.996;2023-05-07T01:54:28;36.10;;;20.10;;
77379;SDS011;66439;50.106;10.996;2023-05-07T01:56:32;33.40;;;18.10;;
77379;SDS011;66439;50.106;10.996;2023-05-07T01:58:38;39.30;;;21.40;;
77379;SDS011;66439;50.106;10.996;2023-05-07T02:00:43;34.70;;;19.30;;
77379;SDS011;66439;50.106;10.996;2023-05-07T02:02:46;32.80;;;19.50;;
77379;SDS011;66439;50.106;10.996;2023-05-07T02:05:13;28.10;;;17.60;;
77379;SDS011;66439;50.106;10.996;2023-05-07T02:07:19;34.50;;;18.60;;
77379;SDS011;66439;50.106;10.996;2023-05-07T02:09:27;33.40;;;19.70;;
77379;SDS011;66439;50.106;10.996;2023-05-07T02:11:32;35.00;;;20.60;;
77379;SDS011;66439;50.106;10.996;2023-05-07T02:13:36;33.50;;;19.10;;
77379;SDS011;66439;50.106;10.996;2023-05-07T02:15:41;35.80;;;20.60;;
77379;SDS011;66439;50.106;10.996;2023-05-07T02:20:22;38.60;;;20.00;;
77379;SDS011;66439;50.106;10.996;2023-05-07T02:22:28;35.60;;;20.70;;
77379;SDS011;66439;50.106;10.996;2023-05-07T02:24:35;39.00;;;22.00;;
77379;SDS011;66439;50.106;10.996;2023-05-07T02:26:45;39.50;;;23.80;;
77379;SDS011;66439;50.106;10.996;2023-05-07T02:28:50;37.40;;;20.20;;
77379;SDS011;66439;50.106;10.996;2023-05-07T02:30:58;41.50;;;26.60;;
77379;SDS011;66439;50.106;10.996;2023-05-07T02:33:06;37.30;;;21.30;;
77379;SDS011;66439;50.106;10.996;2023-05-07T02:37:16;39.80;;;20.80;;
77379;SDS011;66439;50.106;10.996;2023-05-07T02:39:34;42.00;;;21.60;;
77379;SDS011;66439;50.106;10.996;2023-05-07T02:41:43;34.20;;;18.80;;
77379;SDS011;66439;50.106;10.996;2023-05-07T02:43:47;35.70;;;21.80;;
77379;SDS011;66439;50.106;10.996;2023-05-07T02:46:29;38.60;;;21.20;;
77379;SDS011;66439;50.106;10.996;2023-05-07T02:48:29;45.10;;;23.30;;
77379;SDS011;66439;50.106;10.996;2023-05-07T02:52:45;48.50;;;23.90;;
77379;SDS011;66439;50.106;10.996;2023-05-07T02:54:51;47.00;;;25.40;;
77379;SDS011;66439;50.106;10.996;2023-05-07T02:56:59;55.30;;;30.50;;
77379;SDS011;66439;50.106;10.996;2023-05-07T02:59:06;42.60;;;22.50;;
77379;SDS011;66439;50.106;10.996;2023-05-07T03:01:12;43.90;;;23.00;;
77379;SDS011;66439;50.106;10.996;2023-05-07T03:03:35;43.80;;;23.20;;
77379;SDS011;66439;50.106;10.996;2023-05-07T03:05:41;42.50;;;21.70;;
77379;SDS011;66439;50.106;10.996;2023-05-07T03:07:45;44.30;;;22.50;;
77379;SDS011;66439;50.106;10.996;2023-05-07T03:10:08;41.90;;;22.40;;
77379;SDS011;66439;50.106;10.996;2023-05-07T03:12:26;42.80;;;23.20;;
77379;SDS011;66439;50.106;10.996;2023-05-07T03:14:38;44.20;;;23.30;;
77379;SDS011;66439;50.106;10.996;2023-05-07T03:17:02;40.90;;;21.70;;
77379;SDS011;66439;50.106;10.996;2023-05-07T03:19:14;44.90;;;22.30;;
77379;SDS011;66439;50.106;10.996;2023-05-07T03:21:24;43.30;;;20.80;;
77379;SDS011;66439;50.106;10.996;2023-05-07T03:23:32;46.50;;;22.10;;
77379;SDS011;66439;50.106;10.996;2023-05-07T03:25:39;44.40;;;24.00;;
77379;SDS011;66439;50.106;10.996;2023-05-07T03:27:45;50.90;;;26.80;;
77379;SDS011;66439;50.106;10.996;2023-05-07T03:32:02;54.60;;;26.10;;
77379;SDS011;66439;50.106;10.996;2023-05-07T03:34:09;50.10;;;25.50;;
77379;SDS011;66439;50.106;10.996;2023-05-07T03:36:13;47.70;;;22.80;;
77379;SDS011;66439;50.106;10.996;2023-05-07T03:38:17;41.60;;;23.30;;
77379;SDS011;66439;50.106;10.996;2023-05-07T03:40:21;46.50;;;22.80;;
77379;SDS011;66439;50.106;10.996;2023-05-07T03:42:27;44.90;;;22.90;;
77379;SDS011;66439;50.106;10.996;2023-05-07T03:44:40;47.80;;;23.70;;
77379;SDS011;66439;50.106;10.996;2023-05-07T03:47:18;48.90;;;24.70;;
77379;SDS011;66439;50.106;10.996;2023-05-07T03:49:21;46.10;;;23.50;;
77379;SDS011;66439;50.106;10.996;2023-05-07T03:51:24;44.70;;;22.10;;
77379;SDS011;66439;50.106;10.996;2023-05-07T03:53:30;42.30;;;21.30;;
77379;SDS011;66439;50.106;10.996;2023-05-07T03:55:37;47.70;;;25.60;;
77379;SDS011;66439;50.106;10.996;2023-05-07T03:57:41;52.80;;;26.40;;
77379;SDS011;66439;50.106;10.996;2023-05-07T03:59:46;51.90;;;26.60;;
77379;SDS011;66439;50.106;10.996;2023-05-07T04:01:52;45.40;;;21.90;;
77379;SDS011;66439;50.106;10.996;2023-05-07T04:04:00;54.70;;;25.70;;
77379;SDS011;66439;50.106;10.996;2023-05-07T04:06:15;49.40;;;24.60;;
77379;SDS011;66439;50.106;10.996;2023-05-07T04:08:22;51.20;;;24.20;;
77379;SDS011;66439;50.106;10.996;2023-05-07T04:10:33;48.90;;;24.10;;
77379;SDS011;66439;50.106;10.996;2023-05-07T04:12:44;46.70;;;22.00;;
77379;SDS011;66439;50.106;10.996;2023-05-07T04:15:06;45.90;;;22.90;;
77379;SDS011;66439;50.106;10.996;2023-05-07T04:17:19;43.40;;;21.50;;
77379;SDS011;66439;50.106;10.996;2023-05-07T04:19:22;45.60;;;22.20;;
77379;SDS011;66439;50.106;10.996;2023-05-07T04:21:30;47.20;;;23.80;;
77379;SDS011;66439;50.106;10.996;2023-05-07T04:23:34;40.80;;;19.20;;
77379;SDS011;66439;50.106;10.996;2023-05-07T04:25:38;41.40;;;21.70;;
77379;SDS011;66439;50.106;10.996;2023-05-07T04:27:57;42.00;;;19.90;;
77379;SDS011;66439;50.106;10.996;2023-05-07T04:30:03;41.60;;;20.40;;
77379;SDS011;66439;50.106;10.996;2023-05-07T04:32:13;53.60;;;25.70;;
77379;SDS011;66439;50.106;10.996;2023-05-07T04:34:16;50.30;;;23.50;;
77379;SDS011;66439;50.106;10.996;2023-05-07T04:36:23;49.10;;;24.30;;
77379;SDS011;66439;50.106;10.996;2023-05-07T04:38:36;46.30;;;24.30;;
77379;SDS011;66439;50.106;10.996;2023-05-07T04:40:51;45.70;;;22.70;;
77379;SDS011;66439;50.106;10.996;2023-05-07T04:43:04;44.30;;;23.20;;
77379;SDS011;66439;50.106;10.996;2023-05-07T04:45:10;46.40;;;22.30;;
77379;SDS011;66439;50.106;10.996;2023-05-07T04:47:15;43.80;;;22.00;;
77379;SDS011;66439;50.106;10.996;2023-05-07T04:49:22;46.30;;;21.30;;
77379;SDS011;66439;50.106;10.996;2023-05-07T04:51:26;41.60;;;21.10;;
77379;SDS011;66439;50.106;10.996;2023-05-07T04:53:31;41.00;;;19.60;;
77379;SDS011;66439;50.106;10.996;2023-05-07T04:55:35;43.30;;;22.30;;
77379;SDS011;66439;50.106;10.996;2023-05-07T04:57:40;43.30;;;21.40;;
77379;SDS011;66439;50.106;10.996;2023-05-07T04:59:46;41.10;;;20.70;;
77379;SDS011;66439;50.106;10.996;2023-05-07T05:01:51;42.50;;;21.00;;
77379;SDS011;66439;50.106;10.996;2023-05-07T05:03:56;47.40;;;25.30;;
77379;SDS011;66439;50.106;10.996;2023-05-07T05:06:00;54.20;;;25.50;;
77379;SDS011;66439;50.106;10.996;2023-05-07T05:08:06;54.60;;;28.60;;
77379;SDS011;66439;50.106;10.996;2023-05-07T05:10:38;46.80;;;22.90;;
77379;SDS011;66439;50.106;10.996;2023-05-07T05:12:56;46.20;;;22.40;;
77379;SDS011;66439;50.106;10.996;2023-05-07T05:15:03;50.00;;;22.80;;
77379;SDS011;66439;50.106;10.996;2023-05-07T05:17:50;36.10;;;17.70;;
77379;SDS011;66439;50.106;10.996;2023-05-07T05:19:54;48.50;;;22.10;;
77379;SDS011;66439;50.106;10.996;2023-05-07T05:22:00;46.60;;;22.80;;
77379;SDS011;66439;50.106;10.996;2023-05-07T05:24:05;42.30;;;20.90;;
77379;SDS011;66439;50.106;10.996;2023-05-07T05:26:09;46.00;;;21.20;;
77379;SDS011;66439;50.106;10.996;2023-05-07T05:28:12;41.60;;;20.40;;
77379;SDS011;66439;50.106;10.996;2023-05-07T05:30:15;42.00;;;20.60;;
77379;SDS011;66439;50.106;10.996;2023-05-07T05:32:20;39.20;;;19.50;;
77379;SDS011;66439;50.106;10.996;2023-05-07T05:34:25;44.20;;;20.70;;
77379;SDS011;66439;50.106;10.996;2023-05-07T05:36:29;44.90;;;22.30;;
77379;SDS011;66439;50.106;10.996;2023-05-07T05:38:36;42.70;;;20.40;;
77379;SDS011;66439;50.106;10.996;2023-05-07T05:40:39;46.10;;;23.20;;
77379;SDS011;66439;50.106;10.996;2023-05-07T05:42:46;45.90;;;22.80;;
77379;SDS011;66439;50.106;10.996;2023-05-07T05:44:57;52.30;;;22.50;;
77379;SDS011;66439;50.106;10.996;2023-05-07T05:47:05;42.10;;;20.70;;
77379;SDS011;66439;50.106;10.996;2023-05-07T05:49:13;39.40;;;19.70;;
77379;SDS011;66439;50.106;10.996;2023-05-07T05:51:16;42.50;;;19.30;;
77379;SDS011;66439;50.106;10.996;2023-05-07T05:53:21;43.60;;;22.40;;
77379;SDS011;66439;50.106;10.996;2023-05-07T05:55:25;39.50;;;20.10;;
77379;SDS011;66439;50.106;10.996;2023-05-07T05:57:31;41.50;;;20.00;;
77379;SDS011;66439;50.106;10.996;2023-05-07T05:59:34;44.50;;;20.70;;
77379;SDS011;66439;50.106;10.996;2023-05-07T06:01:39;45.40;;;19.30;;
77379;SDS011;66439;50.106;10.996;2023-05-07T06:03:47;41.70;;;20.30;;
77379;SDS011;66439;50.106;10.996;2023-05-07T06:05:53;40.10;;;18.60;;
77379;SDS011;66439;50.106;10.996;2023-05-07T06:08:02;37.90;;;19.00;;
77379;SDS011;66439;50.106;10.996;2023-05-07T06:10:52;37.80;;;19.00;;
77379;SDS011;66439;50.106;10.996;2023-05-07T06:13:00;29.90;;;15.10;;
77379;SDS011;66439;50.106;10.996;2023-05-07T06:15:06;37.10;;;18.20;;
77379;SDS011;66439;50.106;10.996;2023-05-07T06:17:12;39.50;;;21.00;;
77379;SDS011;66439;50.106;10.996;2023-05-07T06:19:16;42.50;;;19.10;;
77379;SDS011;66439;50.106;10.996;2023-05-07T06:21:22;37.10;;;19.00;;
77379;SDS011;66439;50.106;10.996;2023-05-07T06:23:25;35.60;;;16.60;;
77379;SDS011;66439;50.106;10.996;2023-05-07T06:25:32;43.50;;;20.90;;
77379;SDS011;66439;50.106;10.996;2023-05-07T06:27:38;37.90;;;19.40;;
77379;SDS011;66439;50.106;10.996;2023-05-07T06:29:47;38.80;;;19.70;;
77379;SDS011;66439;50.106;10.996;2023-05-07T06:31:53;43.40;;;21.60;;
77379;SDS011;66439;50.106;10.996;2023-05-07T06:34:00;45.70;;;22.00;;
77379;SDS011;66439;50.106;10.996;2023-05-07T06:36:11;27.20;;;13.10;;
77379;SDS011;66439;50.106;10.996;2023-05-07T06:38:15;39.00;;;19.60;;
77379;SDS011;66439;50.106;10.996;2023-05-07T06:42:42;39.80;;;18.40;;
77379;SDS011;66439;50.106;10.996;2023-05-07T06:45:22;43.20;;;20.20;;
77379;SDS011;66439;50.106;10.996;2023-05-07T06:47:42;44.30;;;20.80;;
77379;SDS011;66439;50.106;10.996;2023-05-07T06:49:46;43.60;;;21.60;;
77379;SDS011;66439;50.106;10.996;2023-05-07T06:51:52;35.60;;;18.00;;
77379;SDS011;66439;50.106;10.996;2023-05-07T06:53:58;34.50;;;17.90;;
77379;SDS011;66439;50.106;10.996;2023-05-07T06:56:03;41.70;;;19.80;;
77379;SDS011;66439;50.106;10.996;2023-05-07T06:58:07;38.80;;;17.90;;
77379;SDS011;66439;50.106;10.996;2023-05-07T07:00:19;43.20;;;22.20;;
77379;SDS011;66439;50.106;10.996;2023-05-07T07:02:27;41.80;;;21.10;;
77379;SDS011;66439;50.106;10.996;2023-05-07T07:04:34;47.90;;;24.20;;
77379;SDS011;66439;50.106;10.996;2023-05-07T07:06:42;40.10;;;19.10;;
77379;SDS011;66439;50.106;10.996;2023-05-07T07:08:48;43.70;;;20.70;;
77379;SDS011;66439;50.106;10.996;2023-05-07T07:10:54;41.80;;;19.20;;
77379;SDS011;66439;50.106;10.996;2023-05-07T07:13:01;41.20;;;18.80;;
77379;SDS011;66439;50.106;10.996;2023-05-07T07:15:04;42.40;;;21.00;;
77379;SDS011;66439;50.106;10.996;2023-05-07T07:17:13;40.00;;;19.20;;
77379;SDS011;66439;50.106;10.996;2023-05-07T07:19:22;38.50;;;19.20;;
77379;SDS011;66439;50.106;10.996;2023-05-07T07:21:29;32.90;;;16.50;;
77379;SDS011;66439;50.106;10.996;2023-05-07T07:23:33;35.30;;;18.10;;
77379;SDS011;66439;50.106;10.996;2023-05-07T07:25:38;46.00;;;22.60;;
77379;SDS011;66439;50.106;10.996;2023-05-07T07:27:42;45.30;;;23.10;;
77379;SDS011;66439;50.106;10.996;2023-05-07T07:29:47;38.60;;;20.10;;
77379;SDS011;66439;50.106;10.996;2023-05-07T07:31:51;38.10;;;19.80;;
77379;SDS011;66439;50.106;10.996;2023-05-07T07:33:59;43.70;;;19.60;;
77379;SDS011;66439;50.106;10.996;2023-05-07T07:36:04;39.10;;;19.00;;
77379;SDS011;66439;50.106;10.996;2023-05-07T07:38:11;47.50;;;22.00;;
77379;SDS011;66439;50.106;10.996;2023-05-07T07:40:19;42.90;;;19.50;;
77379;SDS011;66439;50.106;10.996;2023-05-07T07:42:25;38.50;;;19.20;;
77379;SDS011;66439;50.106;10.996;2023-05-07T07:44:33;42.20;;;20.30;;
77379;SDS011;66439;50.106;10.996;2023-05-07T07:46:44;43.30;;;21.30;;
77379;SDS011;66439;50.106;10.996;2023-05-07T07:48:50;38.50;;;18.40;;
77379;SDS011;66439;50.106;10.996;2023-05-07T07:50:56;40.60;;;20.60;;
77379;SDS011;66439;50.106;10.996;2023-05-07T07:53:01;47.00;;;23.40;;
77379;SDS011;66439;50.106;10.996;2023-05-07T07:55:11;39.50;;;18.60;;
77379;SDS011;66439;50.106;10.996;2023-05-07T07:57:19;38.70;;;19.50;;
77379;SDS011;66439;50.106;10.996;2023-05-07T07:59:26;40.30;;;20.00;;
77379;SDS011;66439;50.106;10.996;2023-05-07T08:01:34;37.00;;;17.40;;
77379;SDS011;66439;50.106;10.996;2023-05-07T08:03:40;41.10;;;19.10;;
77379;SDS011;66439;50.106;10.996;2023-05-07T08:05:55;37.70;;;18.80;;
77379;SDS011;66439;50.106;10.996;2023-05-07T08:08:02;29.40;;;15.50;;
77379;SDS011;66439;50.106;10.996;2023-05-07T08:10:07;40.00;;;20.70;;
77379;SDS011;66439;50.106;10.996;2023-05-07T08:12:16;38.00;;;19.70;;
77379;SDS011;66439;50.106;10.996;2023-05-07T08:14:19;36.20;;;19.00;;
77379;SDS011;66439;50.106;10.996;2023-05-07T08:16:26;38.30;;;18.10;;
77379;SDS011;66439;50.106;10.996;2023-05-07T08:18:31;35.40;;;18.50;;
77379;SDS011;66439;50.106;10.996;2023-05-07T08:20:38;44.80;;;22.80;;
77379;SDS011;66439;50.106;10.996;2023-05-07T08:22:46;35.60;;;17.20;;
77379;SDS011;66439;50.106;10.996;2023-05-07T08:24:51;43.80;;;21.80;;
77379;SDS011;66439;50.106;10.996;2023-05-07T08:26:58;39.70;;;19.70;;
77379;SDS011;66439;50.106;10.996;2023-05-07T08:29:02;37.60;;;19.70;;
77379;SDS011;66439;50.106;10.996;2023-05-07T08:31:09;39.90;;;18.50;;
77379;SDS011;66439;50.106;10.996;2023-05-07T08:33:16;35.50;;;18.20;;
77379;SDS011;66439;50.106;10.996;2023-05-07T08:35:21;33.50;;;17.70;;
77379;SDS011;66439;50.106;10.996;2023-05-07T08:37:26;32.50;;;18.00;;
77379;SDS011;66439;50.106;10.996;2023-05-07T08:39:37;35.80;;;17.30;;
77379;SDS011;66439;50.106;10.996;2023-05-07T08:41:55;36.50;;;18.70;;
77379;SDS011;66439;50.106;10.996;2023-05-07T08:44:02;38.10;;;20.90;;
77379;SDS011;66439;50.106;10.996;2023-05-07T08:46:10;38.60;;;19.00;;
77379;SDS011;66439;50.106;10.996;2023-05-07T08:48:17;38.30;;;20.90;;
77379;SDS011;66439;50.106;10.996;2023-05-07T08:50:31;28.70;;;15.50;;
77379;SDS011;66439;50.106;10.996;2023-05-07T08:52:43;31.20;;;17.40;;
77379;SDS011;66439;50.106;10.996;2023-05-07T08:54:58;32.70;;;18.10;;
77379;SDS011;66439;50.106;10.996;2023-05-07T08:57:09;31.20;;;14.90;;
77379;SDS011;66439;50.106;10.996;2023-05-07T08:59:13;37.40;;;19.00;;
77379;SDS011;66439;50.106;10.996;2023-05-07T09:01:24;31.10;;;16.30;;
77379;SDS011;66439;50.106;10.996;2023-05-07T09:03:31;33.00;;;17.40;;
77379;SDS011;66439;50.106;10.996;2023-05-07T09:05:36;31.00;;;17.40;;
77379;SDS011;66439;50.106;10.996;2023-05-07T09:07:41;31.40;;;17.20;;
77379;SDS011;66439;50.106;10.996;2023-05-07T09:10:02;33.30;;;17.20;;
77379;SDS011;66439;50.106;10.996;2023-05-07T09:12:10;34.70;;;18.60;;
77379;SDS011;66439;50.106;10.996;2023-05-07T09:14:24;31.80;;;17.60;;
77379;SDS011;66439;50.106;10.996;2023-05-07T09:16:35;25.00;;;12.90;;
77379;SDS011;66439;50.106;10.996;2023-05-07T09:18:51;24.80;;;15.20;;
77379;SDS011;66439;50.106;10.996;2023-05-07T09:23:02;27.40;;;14.80;;
77379;SDS011;66439;50.106;10.996;2023-05-07T09:25:09;26.70;;;13.70;;
77379;SDS011;66439;50.106;10.996;2023-05-07T09:27:17;28.00;;;14.90;;
77379;SDS011;66439;50.106;10.996;2023-05-07T09:29:24;26.70;;;15.60;;
77379;SDS011;66439;50.106;10.996;2023-05-07T09:31:27;25.00;;;14.80;;
77379;SDS011;66439;50.106;10.996;2023-05-07T09:33:30;26.70;;;15.30;;
77379;SDS011;66439;50.106;10.996;2023-05-07T09:35:34;24.70;;;14.70;;
77379;SDS011;66439;50.106;10.996;2023-05-07T09:37:41;25.40;;;15.60;;
77379;SDS011;66439;50.106;10.996;2023-05-07T09:39:45;23.90;;;14.20;;
77379;SDS011;66439;50.106;10.996;2023-05-07T09:41:51;22.70;;;13.90;;
77379;SDS011;66439;50.106;10.996;2023-05-07T09:44:06;25.60;;;15.20;;
77379;SDS011;66439;50.106;10.996;2023-05-07T09:46:14;22.90;;;14.80;;
77379;SDS011;66439;50.106;10.996;2023-05-07T09:48:23;24.20;;;14.80;;
77379;SDS011;66439;50.106;10.996;2023-05-07T09:52:37;19.50;;;13.00;;
77379;SDS011;66439;50.106;10.996;2023-05-07T09:54:48;20.20;;;13.20;;
77379;SDS011;66439;50.106;10.996;2023-05-07T09:56:54;24.10;;;14.90;;
77379;SDS011;66439;50.106;10.996;2023-05-07T09:59:00;23.30;;;15.00;;
77379;SDS011;66439;50.106;10.996;2023-05-07T10:01:06;21.70;;;14.10;;
77379;SDS011;66439;50.106;10.996;2023-05-07T10:03:11;24.20;;;14.00;;
77379;SDS011;66439;50.106;10.996;2023-05-07T10:05:25;23.30;;;14.40;;
77379;SDS011;66439;50.106;10.996;2023-05-07T10:07:28;22.00;;;13.30;;
77379;SDS011;66439;50.106;10.996;2023-05-07T10:09:38;22.50;;;13.00;;
77379;SDS011;66439;50.106;10.996;2023-05-07T10:11:50;19.80;;;12.60;;
77379;SDS011;66439;50.106;10.996;2023-05-07T10:13:55;20.80;;;12.80;;
77379;SDS011;66439;50.106;10.996;2023-05-07T10:16:18;23.00;;;13.90;;
77379;SDS011;66439;50.106;10.996;2023-05-07T10:18:23;21.00;;;14.00;;
77379;SDS011;66439;50.106;10.996;2023-05-07T10:20:37;19.70;;;12.10;;
77379;SDS011;66439;50.106;10.996;2023-05-07T10:22:43;15.30;;;10.40;;
77379;SDS011;66439;50.106;10.996;2023-05-07T10:24:51;19.30;;;13.40;;
77379;SDS011;66439;50.106;10.996;2023-05-07T10:26:56;16.70;;;11.90;;
77379;SDS011;66439;50.106;10.996;2023-05-07T10:29:11;20.20;;;12.50;;
77379;SDS011;66439;50.106;10.996;2023-05-07T10:34:21;17.80;;;10.80;;
77379;SDS011;66439;50.106;10.996;2023-05-07T10:36:33;17.20;;;12.10;;
77379;SDS011;66439;50.106;10.996;2023-05-07T10:38:42;18.20;;;12.20;;
77379;SDS011;66439;50.106;10.996;2023-05-07T10:40:46;21.80;;;12.60;;
77379;SDS011;66439;50.106;10.996;2023-05-07T10:42:57;16.70;;;11.40;;
77379;SDS011;66439;50.106;10.996;2023-05-07T10:45:14;20.40;;;12.00;;
77379;SDS011;66439;50.106;10.996;2023-05-07T10:50:32;19.40;;;11.30;;
77379;SDS011;66439;50.106;10.996;2023-05-07T10:52:37;16.10;;;10.20;;
77379;SDS011;66439;50.106;10.996;2023-05-07T10:57:32;17.70;;;11.30;;
77379;SDS011;66439;50.106;10.996;2023-05-07T10:59:39;17.50;;;11.10;;
77379;SDS011;66439;50.106;10.996;2023-05-07T11:01:54;17.50;;;10.90;;
77379;SDS011;66439;50.106;10.996;2023-05-07T11:04:13;17.20;;;10.60;;
77379;SDS011;66439;50.106;10.996;2023-05-07T11:06:38;14.60;;;8.60;;
77379;SDS011;66439;50.106;10.996;2023-05-07T11:08:57;16.10;;;9.10;;
77379;SDS011;66439;50.106;10.996;2023-05-07T11:14:08;14.40;;;9.00;;
77379;SDS011;66439;50.106;10.996;2023-05-07T11:16:23;16.80;;;10.90;;
77379;SDS011;66439;50.106;10.996;2023-05-07T11:18:48;14.50;;;10.20;;
77379;SDS011;66439;50.106;10.996;2023-05-07T11:21:06;14.50;;;9.80;;
77379;SDS011;66439;50.106;10.996;2023-05-07T11:25:42;14.30;;;9.60;;
77379;SDS011;66439;50.106;10.996;2023-05-07T11:27:50;13.40;;;7.20;;
77379;SDS011;66439;50.106;10.996;2023-05-07T11:29:56;13.40;;;8.60;;
77379;SDS011;66439;50.106;10.996;2023-05-07T11:32:00;12.50;;;8.60;;
77379;SDS011;66439;50.106;10.996;2023-05-07T11:34:09;15.80;;;9.50;;
77379;SDS011;66439;50.106;10.996;2023-05-07T11:36:13;13.50;;;9.30;;
77379;SDS011;66439;50.106;10.996;2023-05-07T11:38:21;14.00;;;8.90;;
77379;SDS011;66439;50.106;10.996;2023-05-07T11:40:24;13.10;;;8.10;;
77379;SDS011;66439;50.106;10.996;2023-05-07T11:42:28;9.90;;;6.60;;
77379;SDS011;66439;50.106;10.996;2023-05-07T11:44:44;13.10;;;8.50;;
77379;SDS011;66439;50.106;10.996;2023-05-07T11:48:53;11.70;;;8.00;;
77379;SDS011;66439;50.106;10.996;2023-05-07T11:51:00;12.60;;;8.80;;
77379;SDS011;66439;50.106;10.996;2023-05-07T11:53:09;12.70;;;8.10;;
77379;SDS011;66439;50.106;10.996;2023-05-07T11:55:17;11.60;;;9.00;;
77379;SDS011;66439;50.106;10.996;2023-05-07T11:57:26;17.40;;;9.70;;
77379;SDS011;66439;50.106;10.996;2023-05-07T11:59:37;10.90;;;6.70;;
77379;SDS011;66439;50.106;10.996;2023-05-07T12:01:44;12.00;;;7.80;;
77379;SDS011;66439;50.106;10.996;2023-05-07T12:03:48;15.40;;;9.00;;
77379;SDS011;66439;50.106;10.996;2023-05-07T12:05:52;12.80;;;8.20;;
77379;SDS011;66439;50.106;10.996;2023-05-07T12:07:58;12.70;;;8.40;;
77379;SDS011;66439;50.106;10.996;2023-05-07T12:10:05;13.30;;;9.40;;
77379;SDS011;66439;50.106;10.996;2023-05-07T12:12:09;12.80;;;8.50;;
77379;SDS011;66439;50.106;10.996;2023-05-07T12:14:13;12.30;;;9.30;;
77379;SDS011;66439;50.106;10.996;2023-05-07T12:16:18;10.50;;;6.30;;
77379;SDS011;66439;50.106;10.996;2023-05-07T12:18:22;9.40;;;7.20;;
77379;SDS011;66439;50.106;10.996;2023-05-07T12:20:29;10.80;;;6.40;;
77379;SDS011;66439;50.106;10.996;2023-05-07T12:22:32;10.90;;;7.60;;
77379;SDS011;66439;50.106;10.996;2023-05-07T12:24:44;12.10;;;8.50;;
77379;SDS011;66439;50.106;10.996;2023-05-07T12:26:51;12.60;;;7.60;;
77379;SDS011;66439;50.106;10.996;2023-05-07T12:28:57;10.40;;;7.50;;
77379;SDS011;66439;50.106;10.996;2023-05-07T12:31:00;14.90;;;7.10;;
77379;SDS011;66439;50.106;10.996;2023-05-07T12:33:04;10.80;;;7.50;;
77379;SDS011;66439;50.106;10.996;2023-05-07T12:35:08;11.90;;;7.70;;
77379;SDS011;66439;50.106;10.996;2023-05-07T12:37:12;13.10;;;8.40;;
77379;SDS011;66439;50.106;10.996;2023-05-07T12:39:17;14.40;;;9.30;;
77379;SDS011;66439;50.106;10.996;2023-05-07T12:41:20;12.10;;;8.30;;
77379;SDS011;66439;50.106;10.996;2023-05-07T12:43:30;12.40;;;7.10;;
77379;SDS011;66439;50.106;10.996;2023-05-07T12:45:38;12.50;;;7.50;;
77379;SDS011;66439;50.106;10.996;2023-05-07T12:47:44;12.20;;;7.10;;
77379;SDS011;66439;50.106;10.996;2023-05-07T12:49:48;12.00;;;7.60;;
77379;SDS011;66439;50.106;10.996;2023-05-07T12:51:51;11.70;;;7.00;;
77379;SDS011;66439;50.106;10.996;2023-05-07T12:53:55;10.30;;;7.40;;
77379;SDS011;66439;50.106;10.996;2023-05-07T12:56:02;12.20;;;7.30;;